Time;durP1;ratioP1;P1;durP2;ratioP2;P2;SDS_P1;SDS_P2;PMS_P1;PMS_P2;Temp;Humidity;BMP_temperature;BMP_pressure;BME280_temperature;BME280_humidity;BME280_pressure;Samples;Min_cycle;Max_cycle;Signal;HPM_P1;HPM_P2
2022/05/03 00:02:13;;;;;;;;;;;13.50;71.00;;;;;;5094449;28;19920;-72
2022/05/03 00:04:57;;;;;;;;;;;13.40;70.90;;;;;;5092818;28;20001;-72
2022/05/03 00:07:24;;;;;;;;;;;13.40;71.10;;;;;;5093927;28;19913;-71
2022/05/03 00:09:49;;;;;;;;;;;13.40;71.20;;;;;;5092704;28;19958;-72
2022/05/03 00:12:16;;;;;;;;;;;13.30;71.50;;;;;;5092817;28;19947;-72
2022/05/03 00:14:48;;;;;;;;;;;13.30;72.20;;;;;;5094161;28;19920;-72
2022/05/03 00:17:14;;;;;;;;;;;13.20;72.00;;;;;;5093689;28;19940;-72
2022/05/03 00:19:40;;;;;;;;;;;13.10;72.30;;;;;;5092881;28;19920;-72
2022/05/03 00:22:06;;;;;;;;;;;13.20;72.60;;;;;;5094134;28;19939;-72
2022/05/03 00:24:32;;;;;;;;;;;13.10;72.80;;;;;;5093871;28;19920;-72
2022/05/03 00:26:57;;;;;;;;;;;13.10;72.70;;;;;;5094059;28;19923;-71
2022/05/03 00:29:23;;;;;;;;;;;13.10;72.70;;;;;;5094119;28;19961;-71
2022/05/03 00:31:49;;;;;;;;;;;13.00;73.10;;;;;;5092197;28;20296;-72
2022/05/03 00:34:16;;;;;;;;;;;13.00;73.40;;;;;;5093618;28;19912;-72
2022/05/03 00:36:41;;;;;;;;;;;12.90;73.50;;;;;;5093365;28;19912;-72
2022/05/03 00:39:07;;;;;;;;;;;13.00;73.30;;;;;;5093460;28;20756;-72
2022/05/03 00:41:40;;;;;;;;;;;13.00;73.30;;;;;;5093534;28;19912;-72
2022/05/03 00:47:06;;;;;;;;;;;13.10;73.20;;;;;;5093928;28;20247;-72
2022/05/03 00:49:37;;;;;;;;;;;13.10;73.20;;;;;;5093453;28;20011;-72
2022/05/03 00:52:06;;;;;;;;;;;13.10;73.00;;;;;;5093613;28;19967;-72
2022/05/03 00:54:47;;;;;;;;;;;13.20;72.90;;;;;;5093486;28;19912;-72
2022/05/03 00:57:32;;;;;;;;;;;13.20;72.60;;;;;;5093487;28;19939;-72
2022/05/03 01:00:06;;;;;;;;;;;13.20;72.90;;;;;;5082613;28;19927;-72
2022/05/03 01:02:47;;;;;;;;;;;13.20;73.90;;;;;;5092809;28;19915;-73
2022/05/03 01:05:15;;;;;;;;;;;13.20;73.20;;;;;;5093003;28;20371;-72
2022/05/03 01:07:51;;;;;;;;;;;13.20;73.40;;;;;;5093329;28;19912;-72
2022/05/03 01:10:22;;;;;;;;;;;13.20;72.90;;;;;;5092974;28;19912;-71
2022/05/03 01:13:23;;;;;;;;;;;13.30;72.90;;;;;;5093251;28;20013;-72
2022/05/03 01:15:55;;;;;;;;;;;13.30;73.20;;;;;;5030198;28;20293;-72
2022/05/03 01:18:21;;;;;;;;;;;13.30;73.10;;;;;;5081914;28;19957;-72
2022/05/03 01:20:58;;;;;;;;;;;13.30;73.40;;;;;;5092698;28;19951;-73
2022/05/03 01:23:26;;;;;;;;;;;13.30;73.40;;;;;;5092684;28;19916;-72
2022/05/03 01:26:13;;;;;;;;;;;13.30;73.20;;;;;;5092419;28;20291;-72
2022/05/03 01:28:57;;;;;;;;;;;13.30;73.50;;;;;;5092616;28;20362;-72
2022/05/03 01:31:22;;;;;;;;;;;13.30;73.00;;;;;;5092540;28;19912;-71
2022/05/03 01:33:49;;;;;;;;;;;13.40;73.00;;;;;;5092376;28;19969;-71
2022/05/03 01:36:18;;;;;;;;;;;13.40;72.80;;;;;;5092423;28;19908;-72
2022/05/03 01:39:02;;;;;;;;;;;13.40;73.00;;;;;;5092154;28;19927;-72
2022/05/03 01:41:31;;;;;;;;;;;13.50;72.80;;;;;;5091163;28;19908;-72
2022/05/03 01:44:12;;;;;;;;;;;13.50;73.00;;;;;;5092244;28;20294;-72
2022/05/03 01:46:38;;;;;;;;;;;13.40;73.50;;;;;;5092255;28;19915;-71
2022/05/03 01:51:49;;;;;;;;;;;13.50;73.30;;;;;;5092690;28;19915;-71
2022/05/03 01:54:17;;;;;;;;;;;13.40;73.40;;;;;;5092007;28;20354;-71
2022/05/03 01:56:56;;;;;;;;;;;13.40;74.00;;;;;;5092202;28;20002;-72
2022/05/03 01:59:37;;;;;;;;;;;13.40;73.50;;;;;;5091941;28;20280;-72
2022/05/03 02:02:12;;;;;;;;;;;13.40;73.70;;;;;;5092345;28;20386;-72
2022/05/03 02:04:42;;;;;;;;;;;13.30;74.00;;;;;;5091938;28;20424;-72
2022/05/03 02:07:22;;;;;;;;;;;13.40;73.50;;;;;;5092218;28;19908;-72
2022/05/03 02:10:03;;;;;;;;;;;13.40;74.20;;;;;;5092305;28;20359;-72
2022/05/03 02:12:28;;;;;;;;;;;13.40;73.80;;;;;;5092349;28;20002;-72
2022/05/03 02:15:07;;;;;;;;;;;13.30;73.90;;;;;;5091962;28;20331;-72
2022/05/03 02:17:33;;;;;;;;;;;13.30;74.00;;;;;;5091361;28;19920;-72
2022/05/03 02:20:14;;;;;;;;;;;13.30;74.10;;;;;;5091642;28;19927;-72
2022/05/03 02:22:39;;;;;;;;;;;13.30;74.00;;;;;;5090495;28;19937;-72
2022/05/03 02:25:12;;;;;;;;;;;13.30;74.40;;;;;;5091906;28;19912;-72
2022/05/03 02:27:40;;;;;;;;;;;13.30;74.60;;;;;;5091930;28;19912;-72
2022/05/03 02:30:06;;;;;;;;;;;13.20;74.00;;;;;;5091551;28;19935;-72
2022/05/03 02:32:44;;;;;;;;;;;13.40;74.10;;;;;;5090375;28;20359;-73
2022/05/03 02:35:13;;;;;;;;;;;13.30;74.60;;;;;;5091722;28;19918;-72
2022/05/03 02:37:49;;;;;;;;;;;13.40;74.40;;;;;;5091907;28;19913;-72
2022/05/03 02:40:15;;;;;;;;;;;13.40;74.30;;;;;;5090100;28;19920;-73
2022/05/03 02:42:41;;;;;;;;;;;13.40;74.10;;;;;;5089774;28;19919;-72
2022/05/03 02:45:07;;;;;;;;;;;13.30;74.30;;;;;;5091269;28;19919;-72
2022/05/03 02:47:35;;;;;;;;;;;13.30;74.30;;;;;;5091378;28;20376;-72
2022/05/03 02:50:04;;;;;;;;;;;13.30;74.40;;;;;;5091272;28;19913;-72
2022/05/03 02:52:42;;;;;;;;;;;13.30;75.20;;;;;;5091882;28;19912;-72
2022/05/03 02:55:07;;;;;;;;;;;13.30;75.20;;;;;;5091506;28;19916;-72
2022/05/03 02:57:45;;;;;;;;;;;13.30;74.60;;;;;;5091683;28;20417;-72
2022/05/03 03:03:05;;;;;;;;;;;13.30;75.20;;;;;;5092047;28;20262;-71
2022/05/03 03:05:31;;;;;;;;;;;13.30;75.50;;;;;;5091024;28;19919;-72
2022/05/03 03:07:58;;;;;;;;;;;13.30;75.00;;;;;;5091638;28;19912;-71
2022/05/03 03:10:46;;;;;;;;;;;13.30;75.20;;;;;;5089813;28;20326;-71
2022/05/03 03:13:17;;;;;;;;;;;13.30;74.90;;;;;;5083239;28;19920;-72
2022/05/03 03:15:43;;;;;;;;;;;13.30;74.90;;;;;;5091016;28;20275;-72
2022/05/03 03:18:13;;;;;;;;;;;13.30;75.10;;;;;;5091020;28;19920;-71
2022/05/03 03:20:43;;;;;;;;;;;13.30;75.00;;;;;;5091112;28;19923;-72
2022/05/03 03:23:14;;;;;;;;;;;13.30;75.10;;;;;;5091064;28;19912;-72
2022/05/03 03:25:40;;;;;;;;;;;13.40;75.80;;;;;;5090950;28;20284;-72
2022/05/03 03:28:08;;;;;;;;;;;13.30;75.10;;;;;;5091024;28;19916;-72
2022/05/03 03:30:34;;;;;;;;;;;13.30;75.30;;;;;;5090914;28;19951;-71
2022/05/03 03:33:00;;;;;;;;;;;13.30;75.80;;;;;;5089764;28;19963;-71
2022/05/03 03:35:26;;;;;;;;;;;13.40;78.60;;;;;;5089547;28;20000;-71
2022/05/03 03:37:53;;;;;;;;;;;13.40;79.00;;;;;;5091480;28;19923;-72
2022/05/03 03:40:19;;;;;;;;;;;13.50;79.00;;;;;;5090754;28;19923;-71
2022/05/03 03:42:46;;;;;;;;;;;13.70;77.60;;;;;;5089720;28;19912;-71
2022/05/03 03:45:12;;;;;;;;;;;14.10;76.10;;;;;;5089442;28;20384;-72
2022/05/03 03:47:39;;;;;;;;;;;14.20;76.90;;;;;;5091188;28;19919;-71
2022/05/03 03:50:05;;;;;;;;;;;14.20;78.80;;;;;;5090753;28;19948;-72
2022/05/03 03:52:32;;;;;;;;;;;14.10;80.60;;;;;;5091199;28;20009;-73
2022/05/03 03:54:57;;;;;;;;;;;14.10;79.20;;;;;;5092668;28;20371;-72
2022/05/03 03:57:23;;;;;;;;;;;14.10;78.80;;;;;;5094752;28;19912;-71
2022/05/03 03:59:49;;;;;;;;;;;14.00;79.20;;;;;;5094089;28;19916;-71
2022/05/03 04:02:15;;;;;;;;;;;14.00;78.90;;;;;;5094619;28;20598;-71
2022/05/03 04:04:42;;;;;;;;;;;14.00;78.60;;;;;;5094159;28;19912;-72
2022/05/03 04:07:07;;;;;;;;;;;14.20;77.80;;;;;;5094520;28;19965;-72
2022/05/03 04:09:33;;;;;;;;;;;14.30;77.00;;;;;;5094379;28;19920;-71
2022/05/03 04:11:59;;;;;;;;;;;14.40;76.30;;;;;;5093652;28;20333;-72
2022/05/03 04:14:25;;;;;;;;;;;14.50;74.90;;;;;;5094030;28;20264;-71
2022/05/03 04:16:51;;;;;;;;;;;14.50;75.40;;;;;;5093826;28;20304;-71
2022/05/03 04:19:16;;;;;;;;;;;14.70;76.70;;;;;;5093941;28;19920;-71
2022/05/03 04:21:42;;;;;;;;;;;14.80;75.80;;;;;;5093964;28;20021;-71
2022/05/03 04:24:08;;;;;;;;;;;14.80;75.60;;;;;;5092603;28;20363;-71
2022/05/03 04:26:33;;;;;;;;;;;14.80;75.10;;;;;;5093612;28;19919;-71
2022/05/03 04:28:59;;;;;;;;;;;14.80;76.50;;;;;;5093765;28;19916;-71
2022/05/03 04:31:25;;;;;;;;;;;14.80;76.70;;;;;;5093833;28;19920;-71
2022/05/03 04:33:51;;;;;;;;;;;14.80;76.60;;;;;;5093803;28;19962;-71
2022/05/03 04:36:17;;;;;;;;;;;14.80;76.00;;;;;;5092296;28;19912;-72
2022/05/03 04:38:42;;;;;;;;;;;14.90;76.30;;;;;;5093807;28;20359;-71
2022/05/03 04:41:08;;;;;;;;;;;14.90;75.80;;;;;;5093514;28;19912;-72
2022/05/03 04:43:33;;;;;;;;;;;14.80;75.80;;;;;;5093818;28;19938;-72
2022/05/03 04:46:00;;;;;;;;;;;14.90;75.20;;;;;;5093314;28;19912;-72
2022/05/03 04:48:25;;;;;;;;;;;15.00;74.20;;;;;;5093419;28;20414;-72
2022/05/03 04:50:51;;;;;;;;;;;15.10;74.00;;;;;;5093176;28;19912;-71
2022/05/03 04:53:16;;;;;;;;;;;15.10;73.50;;;;;;5093269;28;20333;-71
2022/05/03 04:55:42;;;;;;;;;;;15.10;73.20;;;;;;5093083;28;19912;-72
2022/05/03 04:58:08;;;;;;;;;;;15.20;73.40;;;;;;5093244;28;19981;-71
2022/05/03 05:00:33;;;;;;;;;;;15.40;73.60;;;;;;5093032;28;19912;-71
2022/05/03 05:02:59;;;;;;;;;;;15.60;73.30;;;;;;5092099;28;19951;-71
2022/05/03 05:05:24;;;;;;;;;;;15.90;72.50;;;;;;5092545;28;19965;-71
2022/05/03 05:07:50;;;;;;;;;;;16.10;72.30;;;;;;5093295;28;19919;-72
2022/05/03 05:10:26;;;;;;;;;;;16.20;72.20;;;;;;5093197;28;19965;-72
2022/05/03 05:12:53;;;;;;;;;;;16.20;72.20;;;;;;5091803;28;20105;-71
2022/05/03 05:15:18;;;;;;;;;;;16.30;72.10;;;;;;5092890;28;19912;-72
2022/05/03 05:17:44;;;;;;;;;;;16.30;72.10;;;;;;5092342;28;20265;-71
2022/05/03 05:20:09;;;;;;;;;;;16.40;72.60;;;;;;5092770;28;19927;-71
2022/05/03 05:22:35;;;;;;;;;;;16.40;72.60;;;;;;5093145;28;20051;-71
2022/05/03 05:25:00;;;;;;;;;;;16.60;72.50;;;;;;5092803;28;19958;-71
2022/05/03 05:27:26;;;;;;;;;;;16.70;72.40;;;;;;5092785;28;20367;-71
2022/05/03 05:29:52;;;;;;;;;;;16.90;71.10;;;;;;5091477;28;19919;-71
2022/05/03 05:32:17;;;;;;;;;;;17.00;71.30;;;;;;5091229;28;19912;-72
2022/05/03 05:34:43;;;;;;;;;;;17.20;71.00;;;;;;5092385;28;19974;-72
2022/05/03 05:37:08;;;;;;;;;;;17.40;69.50;;;;;;5091139;28;19912;-71
2022/05/03 05:39:34;;;;;;;;;;;17.50;68.80;;;;;;5092376;28;19923;-71
2022/05/03 05:42:01;;;;;;;;;;;17.50;68.90;;;;;;5092679;28;20275;-71
2022/05/03 05:44:29;;;;;;;;;;;17.40;68.90;;;;;;5092570;28;20291;-71
2022/05/03 05:46:55;;;;;;;;;;;17.30;70.10;;;;;;5092782;28;19918;-71
2022/05/03 05:49:20;;;;;;;;;;;17.20;70.20;;;;;;5092271;28;19912;-72
2022/05/03 05:51:46;;;;;;;;;;;17.30;69.00;;;;;;5090639;28;19912;-71
2022/05/03 05:54:11;;;;;;;;;;;17.30;68.60;;;;;;5092308;28;19919;-71
2022/05/03 05:56:37;;;;;;;;;;;17.30;68.90;;;;;;5092311;28;20264;-71
2022/05/03 05:59:03;;;;;;;;;;;17.40;69.20;;;;;;5092268;28;19931;-72
2022/05/03 06:01:38;;;;;;;;;;;17.40;68.10;;;;;;5092030;28;19919;-71
2022/05/03 06:04:04;;;;;;;;;;;17.40;68.80;;;;;;5091987;28;19920;-72
2022/05/03 06:06:32;;;;;;;;;;;17.50;69.20;;;;;;5092100;28;19912;-71
2022/05/03 06:08:58;;;;;;;;;;;17.50;67.90;;;;;;5092274;28;19912;-71
2022/05/03 06:11:24;;;;;;;;;;;17.40;68.60;;;;;;5092005;28;20263;-71
2022/05/03 06:13:49;;;;;;;;;;;17.50;69.70;;;;;;5092114;28;19919;-71
2022/05/03 06:16:15;;;;;;;;;;;17.50;68.30;;;;;;5089700;28;19961;-71
2022/05/03 06:18:41;;;;;;;;;;;17.50;67.00;;;;;;5091498;28;19966;-71
2022/05/03 06:21:09;;;;;;;;;;;17.70;67.50;;;;;;5091627;28;19939;-72
2022/05/03 06:23:35;;;;;;;;;;;17.70;67.50;;;;;;5091890;28;19920;-71
2022/05/03 06:26:05;;;;;;;;;;;17.70;67.10;;;;;;5091809;28;19912;-71
2022/05/03 06:28:31;;;;;;;;;;;17.70;67.90;;;;;;5091404;28;19912;-72
2022/05/03 06:30:56;;;;;;;;;;;17.80;66.60;;;;;;5091540;28;19942;-71
2022/05/03 06:33:22;;;;;;;;;;;17.80;67.60;;;;;;5091883;28;20415;-71
2022/05/03 06:35:47;;;;;;;;;;;17.70;66.20;;;;;;5091297;28;20356;-71
2022/05/03 06:38:13;;;;;;;;;;;17.70;67.40;;;;;;5091846;28;19912;-71
2022/05/03 06:40:38;;;;;;;;;;;17.50;67.10;;;;;;5091356;28;19977;-71
2022/05/03 06:43:04;;;;;;;;;;;17.60;65.80;;;;;;5091504;28;20326;-72
2022/05/03 06:45:29;;;;;;;;;;;17.60;66.00;;;;;;5091732;28;19907;-72
2022/05/03 06:47:55;;;;;;;;;;;17.60;66.10;;;;;;5091866;28;19987;-72
2022/05/03 06:50:20;;;;;;;;;;;17.70;66.00;;;;;;5091271;28;20002;-72
2022/05/03 06:52:47;;;;;;;;;;;17.70;66.20;;;;;;5091758;28;19931;-72
2022/05/03 06:55:12;;;;;;;;;;;17.80;65.80;;;;;;5091261;28;19912;-72
2022/05/03 06:57:39;;;;;;;;;;;17.80;65.80;;;;;;5091324;28;19912;-72
2022/05/03 07:00:05;;;;;;;;;;;17.90;66.50;;;;;;5091318;28;19916;-72
2022/05/03 07:02:31;;;;;;;;;;;18.10;66.40;;;;;;5091462;28;20280;-73
2022/05/03 07:04:58;;;;;;;;;;;18.30;65.70;;;;;;5091385;28;19954;-72
2022/05/03 07:07:24;;;;;;;;;;;18.50;65.50;;;;;;5091392;28;20371;-72
2022/05/03 07:09:49;;;;;;;;;;;18.70;66.30;;;;;;5091259;28;19912;-72
2022/05/03 07:12:15;;;;;;;;;;;18.90;64.50;;;;;;5091442;28;19920;-72
2022/05/03 07:14:40;;;;;;;;;;;19.10;65.10;;;;;;5091318;28;19912;-71
2022/05/03 07:17:06;;;;;;;;;;;19.20;63.40;;;;;;5090657;28;19924;-71
2022/05/03 07:25:00;;;;;;;;;;;19.20;61.60;;;;;;5090901;28;19957;-72
2022/05/03 07:27:25;;;;;;;;;;;19.60;63.00;;;;;;5091203;28;20014;-72
2022/05/03 07:29:51;;;;;;;;;;;19.90;61.80;;;;;;5094594;28;19992;-72
2022/05/03 07:32:16;;;;;;;;;;;20.00;62.00;;;;;;5094717;28;19912;-72
2022/05/03 07:34:42;;;;;;;;;;;20.10;61.60;;;;;;5094869;28;20136;-73
2022/05/03 07:37:08;;;;;;;;;;;20.10;62.50;;;;;;5095163;28;19935;-72
2022/05/03 07:39:34;;;;;;;;;;;20.10;63.20;;;;;;5094897;28;19916;-72
2022/05/03 07:41:59;;;;;;;;;;;20.10;62.70;;;;;;5094945;28;19916;-72
2022/05/03 07:44:25;;;;;;;;;;;19.80;62.60;;;;;;5094863;28;19938;-71
2022/05/03 07:46:50;;;;;;;;;;;19.60;63.70;;;;;;5094746;28;20410;-71
2022/05/03 07:49:16;;;;;;;;;;;19.50;63.50;;;;;;5094944;28;19940;-72
2022/05/03 07:51:44;;;;;;;;;;;19.40;63.90;;;;;;5094388;28;19912;-71
2022/05/03 07:54:09;;;;;;;;;;;19.30;63.70;;;;;;5094437;28;19916;-71
2022/05/03 07:56:35;;;;;;;;;;;19.40;63.50;;;;;;5094517;28;19934;-72
2022/05/03 07:59:02;;;;;;;;;;;19.50;62.50;;;;;;5094091;28;19923;-71
2022/05/03 08:01:28;;;;;;;;;;;19.50;64.00;;;;;;5094142;28;19964;-71
2022/05/03 08:03:54;;;;;;;;;;;19.60;63.40;;;;;;5092855;28;19912;-71
2022/05/03 08:06:20;;;;;;;;;;;19.80;63.30;;;;;;5094229;28;20033;-70
2022/05/03 08:08:45;;;;;;;;;;;19.90;62.50;;;;;;5094002;28;20391;-70
2022/05/03 08:11:11;;;;;;;;;;;20.00;63.90;;;;;;5094053;28;19919;-72
2022/05/03 08:13:37;;;;;;;;;;;20.00;64.60;;;;;;5093861;28;19965;-69
2022/05/03 08:16:03;;;;;;;;;;;20.20;63.90;;;;;;5093937;28;19919;-70
2022/05/03 08:18:28;;;;;;;;;;;20.60;63.40;;;;;;5093666;28;19995;-69
2022/05/03 08:20:54;;;;;;;;;;;20.80;62.30;;;;;;5093682;28;19908;-71
2022/05/03 08:23:20;;;;;;;;;;;20.80;62.50;;;;;;5093685;28;19964;-70
2022/05/03 08:25:45;;;;;;;;;;;21.00;62.60;;;;;;5093753;28;20393;-71
2022/05/03 08:28:11;;;;;;;;;;;21.20;63.20;;;;;;5093478;28;19955;-72
2022/05/03 08:30:36;;;;;;;;;;;21.70;61.90;;;;;;5093507;28;20002;-72
2022/05/03 08:33:02;;;;;;;;;;;21.90;60.40;;;;;;5093998;28;19919;-73
2022/05/03 08:35:28;;;;;;;;;;;22.20;60.50;;;;;;5093712;28;20279;-71
2022/05/03 08:43:23;;;;;;;;;;;22.40;58.40;;;;;;5093399;28;19939;-70
2022/05/03 08:45:49;;;;;;;;;;;22.50;59.80;;;;;;5093388;28;19908;-70
2022/05/03 08:48:15;;;;;;;;;;;22.70;58.20;;;;;;5093272;28;19912;-70
2022/05/03 08:50:41;;;;;;;;;;;22.70;58.70;;;;;;5093018;28;20026;-70
2022/05/03 08:53:07;;;;;;;;;;;22.60;59.00;;;;;;5091808;28;20325;-70
2022/05/03 08:55:33;;;;;;;;;;;23.00;59.00;;;;;;5093023;28;19916;-69
2022/05/03 08:57:58;;;;;;;;;;;23.30;56.40;;;;;;5091724;28;19916;-69
2022/05/03 09:00:25;;;;;;;;;;;23.00;56.60;;;;;;5092789;28;20371;-70
2022/05/03 09:02:52;;;;;;;;;;;22.80;57.50;;;;;;5093247;28;19916;-69
2022/05/03 09:05:18;;;;;;;;;;;22.60;57.40;;;;;;5092866;28;19913;-71
2022/05/03 09:08:08;;;;;;;;;;;22.50;58.60;;;;;;5093405;28;19927;-69
2022/05/03 09:10:34;;;;;;;;;;;22.60;58.20;;;;;;5093027;28;20378;-71
2022/05/03 09:13:29;;;;;;;;;;;22.70;57.70;;;;;;5093115;28;20012;-68
2022/05/03 09:15:56;;;;;;;;;;;23.10;57.40;;;;;;5079088;28;19942;-69
2022/05/03 09:18:28;;;;;;;;;;;23.50;56.70;;;;;;5092641;28;20006;-67
2022/05/03 09:23:53;;;;;;;;;;;24.00;55.60;;;;;;5093315;28;19918;-71
2022/05/03 09:26:20;;;;;;;;;;;23.90;55.20;;;;;;5090957;28;20008;-71
2022/05/03 09:28:48;;;;;;;;;;;23.50;55.90;;;;;;5091202;28;20361;-71
2022/05/03 09:31:25;;;;;;;;;;;22.80;57.10;;;;;;5090914;28;19920;-72
2022/05/03 09:33:51;;;;;;;;;;;22.60;56.60;;;;;;5092407;28;19912;-70
2022/05/03 09:36:16;;;;;;;;;;;22.60;55.60;;;;;;5092288;28;19916;-71
2022/05/03 09:38:48;;;;;;;;;;;22.50;56.00;;;;;;5090957;28;19912;-70
2022/05/03 09:41:14;;;;;;;;;;;22.60;56.00;;;;;;5092365;28;19938;-70
2022/05/03 09:43:59;;;;;;;;;;;23.00;56.30;;;;;;5092426;28;20372;-71
2022/05/03 09:46:24;;;;;;;;;;;23.30;55.50;;;;;;5092268;28;19950;-71
2022/05/03 09:48:51;;;;;;;;;;;23.60;53.90;;;;;;5090827;28;19912;-70
2022/05/03 09:51:17;;;;;;;;;;;23.80;54.50;;;;;;5092432;28;19916;-70
2022/05/03 09:53:54;;;;;;;;;;;23.80;54.60;;;;;;5092159;28;20326;-70
2022/05/03 09:56:22;;;;;;;;;;;23.90;55.60;;;;;;5092120;28;19994;-69
2022/05/03 09:58:48;;;;;;;;;;;23.80;54.60;;;;;;5091980;28;19977;-70
2022/05/03 10:01:14;;;;;;;;;;;23.70;56.10;;;;;;5091797;28;19916;-69
2022/05/03 10:03:39;;;;;;;;;;;24.20;55.80;;;;;;5091930;28;19916;-68
2022/05/03 10:06:05;;;;;;;;;;;24.60;54.90;;;;;;5091829;28;19939;-69
2022/05/03 10:08:31;;;;;;;;;;;24.70;54.00;;;;;;5091868;28;19923;-69
2022/05/03 10:10:57;;;;;;;;;;;24.60;54.50;;;;;;5091703;28;19920;-70
2022/05/03 10:13:22;;;;;;;;;;;24.70;54.80;;;;;;5091679;28;20337;-69
2022/05/03 10:21:29;;;;;;;;;;;25.00;54.00;;;;;;5091001;28;21538;-70
2022/05/03 10:24:01;;;;;;;;;;;24.50;54.70;;;;;;5091636;28;19908;-70
2022/05/03 10:26:47;;;;;;;;;;;24.60;55.50;;;;;;5091579;28;19916;-70
2022/05/03 10:29:13;;;;;;;;;;;24.50;53.90;;;;;;5091140;28;19909;-70
2022/05/03 10:32:00;;;;;;;;;;;25.00;54.00;;;;;;5091214;28;19926;-71
2022/05/03 10:34:45;;;;;;;;;;;25.60;53.40;;;;;;5091699;28;19908;-70
2022/05/03 10:37:14;;;;;;;;;;;25.60;52.80;;;;;;5091534;28;19970;-72
2022/05/03 10:39:54;;;;;;;;;;;24.80;53.10;;;;;;5091403;28;19916;-71
2022/05/03 10:42:24;;;;;;;;;;;24.60;53.70;;;;;;5091315;28;19927;-70
2022/05/03 10:44:52;;;;;;;;;;;24.90;54.00;;;;;;5091380;28;19918;-70
2022/05/03 10:47:19;;;;;;;;;;;24.90;53.10;;;;;;5091424;28;19916;-70
2022/05/03 10:50:04;;;;;;;;;;;24.70;53.80;;;;;;5091493;28;20006;-70
2022/05/03 10:52:30;;;;;;;;;;;24.40;53.50;;;;;;5091668;28;20341;-70
2022/05/03 10:55:06;;;;;;;;;;;24.00;53.60;;;;;;5090123;28;19999;-70
2022/05/03 10:57:32;;;;;;;;;;;23.70;54.20;;;;;;5091722;28;19970;-71
2022/05/03 10:59:57;;;;;;;;;;;23.40;54.70;;;;;;5091174;28;19951;-72
2022/05/03 11:02:23;;;;;;;;;;;23.20;55.10;;;;;;5089941;28;19920;-71
2022/05/03 11:05:07;;;;;;;;;;;23.00;55.40;;;;;;5094032;28;19950;-70
2022/05/03 11:07:33;;;;;;;;;;;22.60;55.10;;;;;;5095999;28;19916;-71
2022/05/03 11:10:19;;;;;;;;;;;22.40;55.30;;;;;;5095517;28;20111;-71
2022/05/03 11:12:51;;;;;;;;;;;22.30;55.90;;;;;;5095305;28;20317;-71
2022/05/03 11:15:16;;;;;;;;;;;22.30;56.20;;;;;;5095585;28;19908;-72
2022/05/03 11:17:42;;;;;;;;;;;22.40;55.60;;;;;;5094968;28;19947;-71
2022/05/03 11:20:07;;;;;;;;;;;22.40;55.70;;;;;;5094903;28;19923;-70
2022/05/03 11:22:35;;;;;;;;;;;22.40;55.90;;;;;;5095281;28;20348;-71
2022/05/03 11:25:07;;;;;;;;;;;22.90;56.50;;;;;;5095052;28;20293;-71
2022/05/03 11:27:32;;;;;;;;;;;23.60;55.10;;;;;;5095213;28;20385;-71
2022/05/03 11:29:59;;;;;;;;;;;23.60;55.00;;;;;;5095175;28;20263;-72
2022/05/03 11:32:27;;;;;;;;;;;23.20;54.90;;;;;;5095141;28;20350;-71
2022/05/03 11:34:58;;;;;;;;;;;22.80;55.50;;;;;;5094928;28;19981;-71
2022/05/03 11:37:24;;;;;;;;;;;22.70;56.50;;;;;;5095110;28;20378;-71
2022/05/03 11:39:52;;;;;;;;;;;22.90;56.20;;;;;;5094675;28;19998;-70
2022/05/03 11:42:21;;;;;;;;;;;23.40;56.10;;;;;;5095229;28;20303;-70
2022/05/03 11:44:46;;;;;;;;;;;24.20;54.40;;;;;;5094718;28;19912;-72
2022/05/03 11:47:13;;;;;;;;;;;24.30;53.50;;;;;;5094938;28;19917;-71
2022/05/03 11:49:39;;;;;;;;;;;24.10;53.90;;;;;;5094633;28;19912;-72
2022/05/03 11:57:34;;;;;;;;;;;23.50;54.50;;;;;;5095134;28;19920;-71
2022/05/03 12:00:00;;;;;;;;;;;23.20;54.40;;;;;;5094380;28;20268;-72
2022/05/03 12:02:29;;;;;;;;;;;23.00;54.60;;;;;;5094504;28;19920;-71
2022/05/03 12:05:04;;;;;;;;;;;22.70;55.60;;;;;;5094285;28;20431;-73
2022/05/03 12:07:39;;;;;;;;;;;22.50;55.20;;;;;;5094618;28;19912;-73
2022/05/03 12:10:23;;;;;;;;;;;22.30;55.20;;;;;;5092915;28;19916;-71
2022/05/03 12:13:09;;;;;;;;;;;22.10;55.30;;;;;;5094508;28;19913;-71
2022/05/03 12:15:39;;;;;;;;;;;22.00;55.70;;;;;;5092903;28;20419;-72
2022/05/03 12:18:09;;;;;;;;;;;21.70;56.80;;;;;;5093849;28;19959;-71
2022/05/03 12:20:40;;;;;;;;;;;21.40;57.70;;;;;;5093846;28;19935;-72
2022/05/03 12:23:17;;;;;;;;;;;21.20;64.20;;;;;;5093679;28;20298;-71
2022/05/03 12:25:44;;;;;;;;;;;20.70;66.00;;;;;;5093763;28;19966;-71
2022/05/03 12:28:10;;;;;;;;;;;20.30;67.70;;;;;;5075720;28;20257;-72
2022/05/03 12:30:35;;;;;;;;;;;20.10;68.80;;;;;;5093642;28;19923;-72
2022/05/03 12:33:02;;;;;;;;;;;19.80;69.60;;;;;;5093662;28;20363;-72
2022/05/03 12:35:31;;;;;;;;;;;19.60;70.60;;;;;;5093608;28;20280;-72
2022/05/03 12:37:57;;;;;;;;;;;19.60;71.10;;;;;;5092369;28;20394;-72
2022/05/03 12:40:24;;;;;;;;;;;19.60;71.10;;;;;;5093528;28;19920;-71
2022/05/03 12:42:49;;;;;;;;;;;19.50;72.00;;;;;;5092270;28;19920;-72
2022/05/03 12:45:15;;;;;;;;;;;19.50;71.70;;;;;;5093487;28;20318;-72
2022/05/03 12:47:41;;;;;;;;;;;19.40;72.40;;;;;;5093805;28;19916;-72
2022/05/03 12:50:06;;;;;;;;;;;19.20;73.00;;;;;;5093422;28;19924;-72
2022/05/03 12:52:32;;;;;;;;;;;19.20;73.00;;;;;;5093322;28;19912;-72
2022/05/03 12:54:59;;;;;;;;;;;19.00;73.90;;;;;;5093368;28;19912;-72
2022/05/03 13:00:11;;;;;;;;;;;18.70;74.20;;;;;;5093295;28;19923;-72
2022/05/03 13:02:37;;;;;;;;;;;18.40;74.70;;;;;;5093538;28;20385;-72
2022/05/03 13:05:04;;;;;;;;;;;18.20;74.90;;;;;;5093126;28;19966;-72
2022/05/03 13:07:30;;;;;;;;;;;18.30;75.40;;;;;;5093496;28;19952;-72
2022/05/03 13:09:56;;;;;;;;;;;18.20;75.60;;;;;;5093177;28;20397;-72
2022/05/03 13:12:22;;;;;;;;;;;18.20;75.80;;;;;;5093385;28;19912;-72
2022/05/03 13:14:48;;;;;;;;;;;18.30;76.10;;;;;;5092801;28;19916;-72
2022/05/03 13:17:14;;;;;;;;;;;18.50;76.50;;;;;;5091486;28;19938;-72
2022/05/03 13:19:39;;;;;;;;;;;18.70;76.60;;;;;;5092662;28;20003;-72
2022/05/03 13:22:05;;;;;;;;;;;18.90;76.30;;;;;;5093109;28;19916;-71
2022/05/03 13:24:30;;;;;;;;;;;19.00;76.10;;;;;;5092863;28;19930;-71
2022/05/03 13:26:58;;;;;;;;;;;19.20;76.00;;;;;;5092477;28;20245;-72
2022/05/03 13:29:23;;;;;;;;;;;19.30;75.10;;;;;;5091668;28;19918;-71
2022/05/03 13:31:49;;;;;;;;;;;19.40;75.50;;;;;;5092965;28;20011;-72
2022/05/03 13:34:14;;;;;;;;;;;19.40;74.90;;;;;;5092580;28;19998;-72
2022/05/03 13:42:09;;;;;;;;;;;19.50;73.40;;;;;;5093123;28;20413;-73
2022/05/03 13:44:36;;;;;;;;;;;19.40;72.80;;;;;;5092325;28;20367;-72
2022/05/03 13:47:03;;;;;;;;;;;19.40;73.00;;;;;;5091320;28;19916;-72
2022/05/03 13:49:28;;;;;;;;;;;19.30;72.60;;;;;;5090887;28;19909;-73
2022/05/03 13:51:54;;;;;;;;;;;19.30;72.90;;;;;;5092381;28;19939;-71
2022/05/03 13:54:19;;;;;;;;;;;19.40;72.60;;;;;;5092227;28;19964;-71
2022/05/03 13:56:45;;;;;;;;;;;19.50;73.20;;;;;;5092299;28;19923;-70
2022/05/03 13:59:11;;;;;;;;;;;19.50;72.60;;;;;;5091827;28;20360;-71
2022/05/03 14:01:37;;;;;;;;;;;19.60;72.30;;;;;;5092075;28;19917;-71
2022/05/03 14:04:03;;;;;;;;;;;19.70;71.60;;;;;;5092209;28;20367;-72
2022/05/03 14:06:29;;;;;;;;;;;19.80;71.40;;;;;;5092125;28;19916;-72
2022/05/03 14:08:55;;;;;;;;;;;19.90;71.00;;;;;;5091752;28;20275;-72
2022/05/03 14:11:20;;;;;;;;;;;20.10;70.40;;;;;;5092106;28;19920;-72
2022/05/03 14:13:46;;;;;;;;;;;20.10;69.30;;;;;;5091712;28;20363;-72
2022/05/03 14:16:12;;;;;;;;;;;20.10;69.50;;;;;;5091829;28;19966;-72
2022/05/03 14:18:38;;;;;;;;;;;20.00;69.30;;;;;;5091610;28;19973;-73
2022/05/03 14:21:04;;;;;;;;;;;20.20;68.60;;;;;;5091885;28;20334;-71
2022/05/03 14:23:30;;;;;;;;;;;20.10;69.10;;;;;;5091721;28;19915;-72
2022/05/03 14:25:55;;;;;;;;;;;20.00;69.30;;;;;;5091407;28;19918;-71
2022/05/03 14:28:21;;;;;;;;;;;20.10;67.80;;;;;;5091811;28;19969;-72
2022/05/03 14:30:49;;;;;;;;;;;19.90;68.30;;;;;;5091414;28;19908;-72
2022/05/03 14:33:15;;;;;;;;;;;19.80;69.10;;;;;;5091547;28;19964;-72
2022/05/03 14:35:41;;;;;;;;;;;19.70;67.60;;;;;;5091527;28;19947;-72
2022/05/03 14:38:07;;;;;;;;;;;19.60;67.30;;;;;;5090923;28;19955;-72
2022/05/03 14:40:32;;;;;;;;;;;19.50;67.50;;;;;;5091242;28;19960;-73
2022/05/03 14:43:01;;;;;;;;;;;19.60;67.40;;;;;;5091739;28;20382;-72
2022/05/03 14:45:27;;;;;;;;;;;19.60;67.80;;;;;;5091619;28;19915;-72
2022/05/03 14:47:52;;;;;;;;;;;19.60;67.90;;;;;;5091718;28;20497;-71
2022/05/03 14:50:18;;;;;;;;;;;19.60;68.20;;;;;;5091244;28;20005;-72
2022/05/03 14:52:43;;;;;;;;;;;19.60;68.20;;;;;;5091724;28;20347;-72
2022/05/03 14:55:09;;;;;;;;;;;19.60;67.90;;;;;;5091173;28;20321;-72
2022/05/03 15:03:03;;;;;;;;;;;19.60;68.50;;;;;;5091325;28;19956;-71
2022/05/03 15:05:36;;;;;;;;;;;19.50;68.50;;;;;;5091143;28;19908;-71
2022/05/03 15:08:06;;;;;;;;;;;19.50;68.40;;;;;;5091092;28;19999;-72
2022/05/03 15:10:32;;;;;;;;;;;19.50;67.90;;;;;;5091197;28;19914;-72